Dai65tenjinmaru — JJ3950 — position and weather

sailwx.info

Track history (hours):
 
Tides and Currents Weather Stations Pressure Air Temp Water Temp Dewpoint Dewpoint Depression Visibility Wind Speed Wind Dir Waves Ship Positions

Dai65tenjinmaru

Last reported at 2017-Nov-09 06:05 UTC. Time now 2017-Nov-24 05:51 UTC.
Position N 35°11' E 139°46'.
Warning: this ship's position is 14 days out of date.

Length 86 m; draft 5.6 m.

Type: Cargo ship. MMSI: 431301101.

Date/timePositionNaut miles runAvg speedWind from/ knotsBaromVisibWave heightAir tempDewpointWater temp
2017-Nov-09 06:05N 35°11' E 139°46'214.0
2017-Nov-09 05:56N 35°13' E 139°46'512.7
2017-Nov-09 05:30N 35°18' E 139°44'612.7
2017-Nov-09 05:00N 35°24' E 139°43'611.1
2017-Nov-09 04:30N 35°23' E 139°50'3 3.5
2017-Nov-09 03:38N 35°22' E 139°53'0 0.0
2017-Nov-08 03:45N 35°22' E 139°53'0 0.3
2017-Nov-08 02:19N 35°22' E 139°53'411.3
2017-Nov-08 02:00N 35°23' E 139°48'611.3
2017-Nov-08 01:30N 35°19' E 139°44'611.3
2017-Nov-08 00:59N 35°13' E 139°47'  
2017-Nov-02 11:21N 34°53' E 139°49'513.3
2017-Nov-02 10:57N 34°56' E 139°44'612.2
2017-Nov-02 10:30N 35°02' E 139°44'612.2
2017-Nov-02 10:00N 35°08' E 139°45'612.7
2017-Nov-02 09:30N 35°14' E 139°47'612.1
2017-Nov-02 09:00N 35°19' E 139°43'611.5
2017-Nov-02 08:30N 35°25' E 139°44'510.2
2017-Nov-02 08:00N 35°23' E 139°49'1 2.5
2017-Nov-02 07:30N 35°22' E 139°51'0 0.0
2017-Nov-02 07:00N 35°22' E 139°51'0 0.0
2017-Nov-02 06:30N 35°22' E 139°51'0 0.0
2017-Nov-02 06:00N 35°22' E 139°51'0 0.0
2017-Nov-02 05:30N 35°22' E 139°51'0 0.0
2017-Nov-02 05:00N 35°22' E 139°51'0 0.0
2017-Nov-02 04:30N 35°22' E 139°51'0 0.0
2017-Nov-02 04:00N 35°22' E 139°51'0 0.0
2017-Nov-02 03:30N 35°22' E 139°51'1 1.8
2017-Nov-02 02:59N 35°23' E 139°51'  
Track history (hours):
 
Tides and Currents Weather Stations Pressure Air Temp Water Temp Dewpoint Dewpoint Depression Visibility Wind Speed Wind Dir Waves Ship Positions

Dai65tenjinmaru

Last reported at 2017-Nov-09 06:05 UTC. Time now 2017-Nov-24 05:51 UTC.
Position N 35°11' E 139°46'.
Warning: this ship's position is 14 days out of date.

Length 86 m; draft 5.6 m.

Type: Cargo ship. MMSI: 431301101.

Date/timePositionNaut miles runAvg speedWind from/ knotsBaromVisibWave heightAir tempDewpointWater temp
2017-Nov-09 06:05N 35°11' E 139°46'214.0
2017-Nov-09 05:56N 35°13' E 139°46'512.7
2017-Nov-09 05:30N 35°18' E 139°44'612.7
2017-Nov-09 05:00N 35°24' E 139°43'611.1
2017-Nov-09 04:30N 35°23' E 139°50'3 3.5
2017-Nov-09 03:38N 35°22' E 139°53'0 0.0
2017-Nov-08 03:45N 35°22' E 139°53'0 0.3
2017-Nov-08 02:19N 35°22' E 139°53'411.3
2017-Nov-08 02:00N 35°23' E 139°48'611.3
2017-Nov-08 01:30N 35°19' E 139°44'611.3
2017-Nov-08 00:59N 35°13' E 139°47'  
2017-Nov-02 11:21N 34°53' E 139°49'513.3
2017-Nov-02 10:57N 34°56' E 139°44'612.2
2017-Nov-02 10:30N 35°02' E 139°44'612.2
2017-Nov-02 10:00N 35°08' E 139°45'612.7
2017-Nov-02 09:30N 35°14' E 139°47'612.1
2017-Nov-02 09:00N 35°19' E 139°43'611.5
2017-Nov-02 08:30N 35°25' E 139°44'510.2
2017-Nov-02 08:00N 35°23' E 139°49'1 2.5
2017-Nov-02 07:30N 35°22' E 139°51'0 0.0
2017-Nov-02 07:00N 35°22' E 139°51'0 0.0
2017-Nov-02 06:30N 35°22' E 139°51'0 0.0
2017-Nov-02 06:00N 35°22' E 139°51'0 0.0
2017-Nov-02 05:30N 35°22' E 139°51'0 0.0
2017-Nov-02 05:00N 35°22' E 139°51'0 0.0
2017-Nov-02 04:30N 35°22' E 139°51'0 0.0
2017-Nov-02 04:00N 35°22' E 139°51'0 0.0
2017-Nov-02 03:30N 35°22' E 139°51'1 1.8
2017-Nov-02 02:59N 35°23' E 139°51'  

Dump ship's entire track history